Time;durP1;ratioP1;P1;durP2;ratioP2;P2;SDS_P1;SDS_P2;PMS_P1;PMS_P2;Temp;Humidity;BMP_temperature;BMP_pressure;BME280_temperature;BME280_humidity;BME280_pressure;Samples;Min_cycle;Max_cycle;Signal;HPM_P1;HPM_P2
2023/03/19 00:01:57;;;;;;;1.38;1.10;;;13.30;75.10;;;;;;5082709;28;20517;-68
2023/03/19 00:04:24;;;;;;;2.78;1.17;;;13.30;75.40;;;;;;5085355;28;20028;-67
2023/03/19 00:06:50;;;;;;;1.42;1.00;;;13.20;75.60;;;;;;5086876;28;20028;-68
2023/03/19 00:09:17;;;;;;;1.00;1.00;;;13.20;75.90;;;;;;5087264;28;20097;-68
2023/03/19 00:11:42;;;;;;;1.10;1.00;;;13.10;76.20;;;;;;5087867;28;20493;-66
2023/03/19 00:14:08;;;;;;;0.95;0.90;;;13.10;76.50;;;;;;5088576;28;20058;-68
2023/03/19 00:16:34;;;;;;;1.08;1.05;;;13.10;76.70;;;;;;5086186;28;20032;-68
2023/03/19 00:19:00;;;;;;;2.78;1.20;;;13.00;76.90;;;;;;5088499;28;20039;-66
2023/03/19 00:21:26;;;;;;;0.80;0.80;;;13.00;77.60;;;;;;5088025;28;20069;-67
2023/03/19 00:23:51;;;;;;;1.98;0.80;;;13.00;77.20;;;;;;5088671;28;20043;-68
2023/03/19 00:26:17;;;;;;;1.25;0.90;;;13.00;77.20;;;;;;5091151;28;20028;-67
2023/03/19 00:28:42;;;;;;;2.13;1.00;;;12.90;77.70;;;;;;5093085;28;20032;-67
2023/03/19 00:31:11;;;;;;;0.85;0.82;;;13.00;78.00;;;;;;5094325;28;20103;-68
2023/03/19 00:33:37;;;;;;;1.50;1.00;;;12.90;78.10;;;;;;5088574;28;20020;-67
2023/03/19 00:36:04;;;;;;;0.82;0.80;;;12.90;78.00;;;;;;5087421;28;20027;-67
2023/03/19 00:38:30;;;;;;;1.00;0.90;;;12.90;77.90;;;;;;5087027;28;20502;-68
2023/03/19 00:40:56;;;;;;;1.05;0.80;;;13.00;77.90;;;;;;5088507;28;20039;-68
2023/03/19 00:43:22;;;;;;;2.08;0.70;;;13.00;77.80;;;;;;5089764;28;20020;-68
2023/03/19 00:45:47;;;;;;;0.93;0.90;;;13.00;77.80;;;;;;5086741;28;20020;-68
2023/03/19 00:48:13;;;;;;;1.20;1.00;;;13.00;77.70;;;;;;5087900;28;20394;-67
2023/03/19 00:50:39;;;;;;;1.55;0.98;;;13.00;77.60;;;;;;5084610;28;20420;-68
2023/03/19 00:53:04;;;;;;;1.42;0.90;;;13.00;77.60;;;;;;5086041;28;20055;-68
2023/03/19 00:55:30;;;;;;;1.17;1.00;;;13.10;77.50;;;;;;5087385;28;20024;-69
2023/03/19 00:57:56;;;;;;;1.10;1.00;;;13.00;77.50;;;;;;5086381;28;20798;-68
2023/03/19 01:00:21;;;;;;;1.10;1.00;;;13.00;77.60;;;;;;5085619;28;20110;-68
2023/03/19 01:02:47;;;;;;;1.00;0.90;;;13.00;77.70;;;;;;5088019;28;20035;-67
2023/03/19 01:05:12;;;;;;;2.05;1.08;;;13.00;77.70;;;;;;5085003;28;20502;-66
2023/03/19 01:07:38;;;;;;;1.42;1.20;;;13.00;77.70;;;;;;5087786;28;20103;-67
2023/03/19 01:10:04;;;;;;;1.30;1.20;;;13.00;77.70;;;;;;5084431;28;20027;-67
2023/03/19 01:12:30;;;;;;;1.20;1.10;;;13.00;77.80;;;;;;5087085;28;20468;-68
2023/03/19 01:14:56;;;;;;;1.65;1.35;;;13.00;77.70;;;;;;5089525;28;20102;-67
2023/03/19 01:17:21;;;;;;;2.05;1.30;;;13.00;77.80;;;;;;5086833;28;20016;-68
2023/03/19 01:19:48;;;;;;;1.30;1.17;;;13.00;77.80;;;;;;5083899;28;20496;-68
2023/03/19 01:22:15;;;;;;;2.63;1.52;;;12.90;77.80;;;;;;5083219;28;20043;-68
2023/03/19 01:24:41;;;;;;;1.35;1.20;;;12.90;78.00;;;;;;5079904;28;20385;-69
2023/03/19 01:27:07;;;;;;;1.63;1.10;;;12.90;78.20;;;;;;5086954;28;20028;-68
2023/03/19 01:29:32;;;;;;;2.00;1.48;;;12.90;78.20;;;;;;5085420;28;20132;-68
2023/03/19 01:31:58;;;;;;;1.65;1.10;;;12.80;78.50;;;;;;5075575;28;20029;-68
2023/03/19 01:34:23;;;;;;;1.10;1.00;;;12.70;78.50;;;;;;5079223;28;20399;-69
2023/03/19 01:36:49;;;;;;;0.98;0.90;;;12.80;78.60;;;;;;5088549;28;20063;-69
2023/03/19 01:39:15;;;;;;;2.10;1.45;;;12.70;78.40;;;;;;5070847;28;20032;-69
2023/03/19 01:41:41;;;;;;;2.15;1.45;;;12.70;79.40;;;;;;5086461;28;20024;-68
2023/03/19 01:44:26;;;;;;;1.80;1.40;;;12.60;80.00;;;;;;5080656;28;20368;-68
2023/03/19 01:46:52;;;;;;;1.30;1.00;;;12.50;80.00;;;;;;5086535;28;20506;-69
2023/03/19 01:49:19;;;;;;;1.60;1.20;;;12.50;80.00;;;;;;5074750;28;20044;-68
2023/03/19 01:51:46;;;;;;;2.95;1.02;;;12.50;79.90;;;;;;5086116;28;20024;-68
2023/03/19 01:54:15;;;;;;;1.65;1.30;;;12.50;79.80;;;;;;5080425;28;20437;-68
2023/03/19 01:56:43;;;;;;;1.58;1.20;;;12.40;80.00;;;;;;5084935;28;20024;-67
2023/03/19 01:59:20;;;;;;;1.50;1.15;;;12.40;80.00;;;;;;5076039;28;20060;-68
2023/03/19 02:01:55;;;;;;;2.05;1.30;;;12.40;80.10;;;;;;5085176;28;20020;-68
2023/03/19 02:04:24;;;;;;;1.98;1.40;;;12.40;80.00;;;;;;5080231;28;20036;-67
2023/03/19 02:06:50;;;;;;;1.63;1.23;;;12.40;79.90;;;;;;5077823;28;20090;-67
2023/03/19 02:09:17;;;;;;;1.48;1.35;;;12.40;79.90;;;;;;5075469;28;20031;-67
2023/03/19 02:11:44;;;;;;;2.38;1.23;;;12.40;80.00;;;;;;5083470;28;20017;-67
2023/03/19 02:14:11;;;;;;;1.40;1.30;;;12.40;80.10;;;;;;5081262;28;20021;-68
2023/03/19 02:16:36;;;;;;;1.45;1.20;;;12.40;80.00;;;;;;5085035;28;20424;-67
2023/03/19 02:19:03;;;;;;;1.40;1.10;;;12.40;79.90;;;;;;5084909;28;20036;-66
2023/03/19 02:21:29;;;;;;;1.95;1.17;;;12.50;79.80;;;;;;5088462;28;20114;-68
2023/03/19 02:24:21;;;;;;;4.35;1.30;;;12.50;79.80;;;;;;5083318;28;20552;-67
2023/03/19 02:26:49;;;;;;;1.30;1.20;;;12.50;79.80;;;;;;5079368;28;20036;-68
2023/03/19 02:29:14;;;;;;;1.70;1.35;;;12.50;79.80;;;;;;5077372;28;20024;-68
2023/03/19 02:31:40;;;;;;;1.23;1.08;;;12.50;80.00;;;;;;5089265;28;20024;-68
2023/03/19 02:34:19;;;;;;;1.58;1.20;;;12.50;79.90;;;;;;5075201;28;20021;-68
2023/03/19 02:36:53;;;;;;;1.80;1.10;;;12.50;79.90;;;;;;5085985;28;20077;-68
2023/03/19 02:39:46;;;;;;;1.92;1.02;;;12.50;80.00;;;;;;5081350;28;20032;-68
2023/03/19 02:42:13;;;;;;;1.42;1.10;;;12.50;80.00;;;;;;5080109;28;20029;-67
2023/03/19 02:44:39;;;;;;;1.60;1.40;;;12.40;80.10;;;;;;5078273;28;20024;-67
2023/03/19 02:47:05;;;;;;;1.52;1.30;;;12.40;80.40;;;;;;5088387;28;20038;-69
2023/03/19 02:49:30;;;;;;;1.83;1.42;;;12.40;80.50;;;;;;5084183;28;20132;-68
2023/03/19 02:51:56;;;;;;;1.30;1.15;;;12.40;80.70;;;;;;5082935;28;20031;-67
2023/03/19 02:54:22;;;;;;;1.80;1.25;;;12.40;80.60;;;;;;5073252;28;20028;-68
2023/03/19 02:56:47;;;;;;;1.77;1.58;;;12.40;80.50;;;;;;5076909;28;20016;-68
2023/03/19 02:59:13;;;;;;;1.50;1.40;;;12.40;80.80;;;;;;5083092;28;20028;-68
2023/03/19 03:01:39;;;;;;;1.77;1.30;;;12.40;80.80;;;;;;5079518;28;20052;-69
2023/03/19 03:04:05;;;;;;;1.73;1.33;;;12.40;81.00;;;;;;5085579;28;20039;-67
2023/03/19 03:06:31;;;;;;;1.45;1.20;;;12.40;80.80;;;;;;5082934;28;20024;-67
2023/03/19 03:08:56;;;;;;;2.20;1.40;;;12.40;80.70;;;;;;5085289;28;20334;-67
2023/03/19 03:11:22;;;;;;;1.98;1.50;;;12.40;80.80;;;;;;5085989;28;20032;-69
2023/03/19 03:13:48;;;;;;;1.70;1.20;;;12.40;81.00;;;;;;5079348;28;20032;-67
2023/03/19 03:16:14;;;;;;;1.83;1.40;;;12.40;80.80;;;;;;5082432;28;20107;-69
2023/03/19 03:18:40;;;;;;;1.80;1.27;;;12.40;80.70;;;;;;5082677;28;20052;-69
2023/03/19 03:21:06;;;;;;;1.92;1.30;;;12.40;80.70;;;;;;5086515;28;20078;-68
2023/03/19 03:23:31;;;;;;;2.03;1.30;;;12.40;80.80;;;;;;5089708;28;20024;-67
2023/03/19 03:25:57;;;;;;;1.48;1.20;;;12.40;80.80;;;;;;5082477;28;20099;-68
2023/03/19 03:28:23;;;;;;;1.65;1.40;;;12.40;80.80;;;;;;5075645;28;20111;-68
2023/03/19 03:30:49;;;;;;;1.77;1.60;;;12.40;80.90;;;;;;5081729;28;20165;-69
2023/03/19 03:33:16;;;;;;;3.05;1.70;;;12.40;81.10;;;;;;5090672;28;20028;-69
2023/03/19 03:35:42;;;;;;;1.77;1.50;;;12.40;81.40;;;;;;5080498;28;20100;-67
2023/03/19 03:38:08;;;;;;;2.80;1.40;;;12.40;81.30;;;;;;5087580;28;20024;-67
2023/03/19 03:40:35;;;;;;;2.45;1.60;;;12.40;81.20;;;;;;5086463;28;20095;-67
2023/03/19 03:43:01;;;;;;;1.40;1.30;;;12.50;81.20;;;;;;5088130;28;20081;-68
2023/03/19 03:45:26;;;;;;;1.58;1.40;;;12.50;81.10;;;;;;5086495;28;20023;-67
2023/03/19 03:47:52;;;;;;;1.67;1.50;;;12.50;80.90;;;;;;5081999;28;20041;-66
2023/03/19 03:50:17;;;;;;;2.30;1.63;;;12.50;81.00;;;;;;5091175;28;20750;-68
2023/03/19 03:52:43;;;;;;;2.10;1.60;;;12.50;81.20;;;;;;5089264;28;20367;-68
2023/03/19 03:55:09;;;;;;;3.03;1.98;;;12.40;81.30;;;;;;5084675;28;20033;-67
2023/03/19 03:57:35;;;;;;;2.40;1.90;;;12.40;81.60;;;;;;5085358;28;20115;-68
2023/03/19 04:00:01;;;;;;;2.45;1.77;;;12.40;82.10;;;;;;5078663;28;20036;-68
2023/03/19 04:02:26;;;;;;;2.13;1.80;;;12.40;82.00;;;;;;5076515;28;20390;-68
2023/03/19 04:04:52;;;;;;;2.15;1.80;;;12.30;81.90;;;;;;5087178;28;20538;-68
2023/03/19 04:07:18;;;;;;;2.42;1.70;;;12.30;81.80;;;;;;5082030;28;20025;-68
2023/03/19 04:09:44;;;;;;;3.05;2.17;;;12.30;81.80;;;;;;5082818;28;20039;-68
2023/03/19 04:12:11;;;;;;;2.47;1.80;;;12.30;81.90;;;;;;5083245;28;20024;-68
2023/03/19 04:14:37;;;;;;;2.72;2.00;;;12.30;81.90;;;;;;5084689;28;20115;-67
2023/03/19 04:17:03;;;;;;;3.08;2.08;;;12.30;82.00;;;;;;5076887;28;20089;-68
2023/03/19 04:19:30;;;;;;;3.13;2.00;;;12.30;82.20;;;;;;5080129;28;20032;-67
2023/03/19 04:21:56;;;;;;;3.22;1.98;;;12.30;82.50;;;;;;5080883;28;20493;-68
2023/03/19 04:24:22;;;;;;;2.55;1.80;;;12.30;82.60;;;;;;5091532;28;20028;-68
2023/03/19 04:26:48;;;;;;;3.33;2.20;;;12.30;82.40;;;;;;5081774;28;20035;-67
2023/03/19 04:29:14;;;;;;;2.15;1.67;;;12.40;82.30;;;;;;5081451;28;20032;-67
2023/03/19 04:31:40;;;;;;;2.15;1.58;;;12.30;82.20;;;;;;5080062;28;20024;-67
2023/03/19 04:34:05;;;;;;;2.17;1.90;;;12.40;82.10;;;;;;5088186;28;20016;-67
2023/03/19 04:36:32;;;;;;;2.30;1.60;;;12.40;82.00;;;;;;5083872;28;20020;-68
2023/03/19 04:38:57;;;;;;;2.53;1.80;;;12.40;82.70;;;;;;5079717;28;20032;-68
2023/03/19 04:41:23;;;;;;;2.47;1.70;;;12.40;82.10;;;;;;5084772;28;20438;-67
2023/03/19 04:43:48;;;;;;;2.38;1.92;;;12.40;82.00;;;;;;5088127;28;20463;-68
2023/03/19 04:46:14;;;;;;;3.35;1.80;;;12.40;82.00;;;;;;5084686;28;20050;-67
2023/03/19 04:48:39;;;;;;;3.15;2.03;;;12.40;81.90;;;;;;5089455;28;20032;-69
2023/03/19 04:51:08;;;;;;;2.45;1.83;;;12.40;81.90;;;;;;5087566;28;20080;-68
2023/03/19 04:53:35;;;;;;;2.72;1.80;;;12.40;81.90;;;;;;5082534;28;20110;-69
2023/03/19 04:56:01;;;;;;;2.50;1.90;;;12.50;81.80;;;;;;5082942;28;20016;-68
2023/03/19 04:58:27;;;;;;;2.58;1.80;;;12.50;81.80;;;;;;5083839;28;20008;-68
2023/03/19 05:00:52;;;;;;;3.00;2.10;;;12.50;81.90;;;;;;5082599;28;20020;-67
2023/03/19 05:03:18;;;;;;;3.33;2.08;;;12.40;81.70;;;;;;5089746;28;20153;-68
2023/03/19 05:05:44;;;;;;;2.90;2.03;;;12.50;81.90;;;;;;5071733;28;20021;-68
2023/03/19 05:08:10;;;;;;;3.47;2.40;;;12.50;81.90;;;;;;5085043;28;20036;-67
2023/03/19 05:10:36;;;;;;;2.10;1.77;;;12.50;81.80;;;;;;5088708;28;20024;-67
2023/03/19 05:13:03;;;;;;;3.38;2.30;;;12.50;81.80;;;;;;5085671;28;20032;-68
2023/03/19 05:15:29;;;;;;;5.05;3.50;;;12.50;81.80;;;;;;5080942;28;20065;-68
2023/03/19 05:17:54;;;;;;;4.93;3.28;;;12.40;82.30;;;;;;5082064;28;20024;-67
2023/03/19 05:20:20;;;;;;;4.20;2.78;;;12.40;82.30;;;;;;5079793;28;20112;-67
2023/03/19 05:22:46;;;;;;;4.78;3.25;;;12.40;82.20;;;;;;5077621;28;20028;-67
2023/03/19 05:25:12;;;;;;;5.50;3.35;;;12.30;82.30;;;;;;5078977;28;20020;-67
2023/03/19 05:27:37;;;;;;;3.97;2.90;;;12.30;82.30;;;;;;5084368;28;20449;-68
2023/03/19 05:30:04;;;;;;;6.32;3.58;;;12.30;82.50;;;;;;5089160;28;20060;-67
2023/03/19 05:32:30;;;;;;;5.72;3.97;;;12.30;82.60;;;;;;5081413;28;20033;-68
2023/03/19 05:34:55;;;;;;;4.93;3.47;;;12.20;82.70;;;;;;5085661;28;20012;-67
2023/03/19 05:37:21;;;;;;;6.38;4.10;;;12.20;82.70;;;;;;5083942;28;20028;-68
2023/03/19 05:39:46;;;;;;;7.80;4.30;;;12.20;82.80;;;;;;5083417;28;20044;-67
2023/03/19 05:42:13;;;;;;;8.40;5.60;;;12.20;83.00;;;;;;5085506;28;20077;-67
2023/03/19 05:44:39;;;;;;;8.32;5.65;;;12.20;83.40;;;;;;5074410;28;20043;-66
2023/03/19 05:47:04;;;;;;;7.57;4.80;;;12.10;83.70;;;;;;5078117;28;20538;-68
2023/03/19 05:49:30;;;;;;;9.15;5.38;;;12.10;83.60;;;;;;5071758;28;20036;-68
2023/03/19 05:51:55;;;;;;;8.23;5.72;;;12.10;83.60;;;;;;5085621;28;20023;-68
2023/03/19 05:54:21;;;;;;;7.22;4.95;;;12.10;83.90;;;;;;5082113;28;20165;-67
2023/03/19 05:56:47;;;;;;;5.25;3.67;;;12.10;83.90;;;;;;5081942;28;20020;-69
2023/03/19 05:59:12;;;;;;;6.55;3.90;;;12.10;83.70;;;;;;5084356;28;20475;-68
2023/03/19 06:01:38;;;;;;;6.03;3.95;;;12.10;83.50;;;;;;5088507;28;20028;-69
2023/03/19 06:04:04;;;;;;;8.50;3.95;;;12.20;83.50;;;;;;5083359;28;20509;-69
2023/03/19 06:06:29;;;;;;;6.70;4.68;;;12.20;83.20;;;;;;5088877;28;20153;-67
2023/03/19 06:08:55;;;;;;;9.63;6.10;;;12.20;83.30;;;;;;5082080;28;20099;-68
2023/03/19 06:11:20;;;;;;;7.53;4.93;;;12.20;83.50;;;;;;5086119;28;20066;-67
2023/03/19 06:13:46;;;;;;;9.63;5.63;;;12.20;83.50;;;;;;5085176;28;20095;-68
2023/03/19 06:16:11;;;;;;;7.65;4.68;;;12.20;83.40;;;;;;5081971;28;20024;-68
2023/03/19 06:18:37;;;;;;;10.32;5.20;;;12.20;83.30;;;;;;5076155;28;20161;-67
2023/03/19 06:21:03;;;;;;;9.05;5.30;;;12.20;83.20;;;;;;5079632;28;20115;-68
2023/03/19 06:23:29;;;;;;;8.43;4.88;;;12.20;83.40;;;;;;5080007;28;20019;-67
2023/03/19 06:25:55;;;;;;;7.20;4.57;;;12.20;83.30;;;;;;5082465;28;20024;-68
2023/03/19 06:28:20;;;;;;;6.97;4.07;;;12.20;83.10;;;;;;5079555;28;20032;-69
2023/03/19 06:30:46;;;;;;;7.30;4.50;;;12.30;83.20;;;;;;5078524;28;20028;-68
2023/03/19 06:33:13;;;;;;;7.38;4.50;;;12.30;83.10;;;;;;5086673;28;20554;-68
2023/03/19 06:35:39;;;;;;;7.68;4.32;;;12.30;83.00;;;;;;5082200;28;20019;-68
2023/03/19 06:38:06;;;;;;;9.43;6.20;;;12.30;83.00;;;;;;5084553;28;20074;-67
2023/03/19 06:40:32;;;;;;;11.75;7.68;;;12.30;83.00;;;;;;5084659;28;20032;-67
2023/03/19 06:42:57;;;;;;;9.90;5.93;;;12.20;83.20;;;;;;5085477;28;20070;-68
2023/03/19 06:45:23;;;;;;;8.82;5.40;;;12.20;83.30;;;;;;5085781;28;20031;-68
2023/03/19 06:47:49;;;;;;;8.98;5.50;;;12.30;83.10;;;;;;5084863;28;20051;-67
2023/03/19 06:50:16;;;;;;;7.72;4.95;;;12.30;83.00;;;;;;5078016;28;20051;-68
2023/03/19 06:52:42;;;;;;;9.23;5.72;;;12.30;82.80;;;;;;5086462;28;20427;-67
2023/03/19 06:55:09;;;;;;;7.30;5.03;;;12.30;82.70;;;;;;5080003;28;20028;-67
2023/03/19 06:57:35;;;;;;;9.88;5.30;;;12.30;82.70;;;;;;5079992;28;20045;-68
2023/03/19 07:00:01;;;;;;;9.93;6.10;;;12.30;82.70;;;;;;5082617;28;20028;-68
2023/03/19 07:02:26;;;;;;;10.57;6.03;;;12.30;82.70;;;;;;5082348;28;20035;-68
2023/03/19 07:04:52;;;;;;;11.32;6.95;;;12.30;82.70;;;;;;5083241;28;20024;-68
2023/03/19 07:07:18;;;;;;;12.60;7.15;;;12.30;82.90;;;;;;5090396;28;20039;-67
2023/03/19 07:09:43;;;;;;;10.77;7.22;;;12.30;83.20;;;;;;5087581;28;20647;-68
2023/03/19 07:12:09;;;;;;;10.73;6.85;;;12.20;83.20;;;;;;5086116;28;20428;-69
2023/03/19 07:14:35;;;;;;;9.45;6.22;;;12.30;83.20;;;;;;5087083;28;20024;-67
2023/03/19 07:17:00;;;;;;;10.05;6.60;;;12.30;83.00;;;;;;5088612;28;20107;-68
2023/03/19 07:19:26;;;;;;;9.07;6.18;;;12.30;83.00;;;;;;5087434;28;20036;-69
2023/03/19 07:21:51;;;;;;;8.15;4.95;;;12.30;82.90;;;;;;5082943;28;20055;-67
2023/03/19 07:24:17;;;;;;;7.45;4.82;;;12.40;82.70;;;;;;5070832;28;20024;-70
2023/03/19 07:26:43;;;;;;;7.93;5.18;;;12.40;82.60;;;;;;5081822;28;20024;-69
2023/03/19 07:29:09;;;;;;;10.77;6.57;;;12.50;82.60;;;;;;5084605;28;20097;-68
2023/03/19 07:31:35;;;;;;;8.27;5.38;;;12.40;82.60;;;;;;5083169;28;20019;-69
2023/03/19 07:34:01;;;;;;;7.80;4.90;;;12.40;82.60;;;;;;5089253;28;20110;-69
2023/03/19 07:36:27;;;;;;;8.18;5.13;;;12.40;82.70;;;;;;5078367;28;20074;-70
2023/03/19 07:38:52;;;;;;;8.68;5.38;;;12.40;82.70;;;;;;5086838;28;20023;-67
2023/03/19 07:41:18;;;;;;;7.72;4.55;;;12.60;82.60;;;;;;5088027;28;20153;-68
2023/03/19 07:43:43;;;;;;;6.13;4.05;;;12.60;82.40;;;;;;5087789;28;20032;-67
2023/03/19 07:46:09;;;;;;;7.18;4.90;;;12.70;82.30;;;;;;5086881;28;20032;-68
2023/03/19 07:48:35;;;;;;;8.10;4.57;;;12.70;82.20;;;;;;5079076;28;20013;-67
2023/03/19 07:51:00;;;;;;;5.68;3.90;;;12.60;82.20;;;;;;5078461;28;20035;-66
2023/03/19 07:53:26;;;;;;;8.73;5.35;;;12.70;82.20;;;;;;5081407;28;20485;-68
2023/03/19 07:55:52;;;;;;;7.28;4.65;;;12.60;82.40;;;;;;5085153;28;20065;-66
2023/03/19 07:58:18;;;;;;;8.30;5.30;;;12.50;82.50;;;;;;5088607;28;20058;-68
2023/03/19 08:00:44;;;;;;;11.73;5.97;;;12.50;82.70;;;;;;5088108;28;20067;-69
2023/03/19 08:03:10;;;;;;;10.45;6.32;;;12.60;82.90;;;;;;5080670;28;20024;-69
2023/03/19 08:05:36;;;;;;;7.40;5.03;;;12.50;82.90;;;;;;5075858;28;20032;-68
2023/03/19 08:08:02;;;;;;;7.82;5.03;;;12.50;82.70;;;;;;5088232;28;20051;-69
2023/03/19 08:10:27;;;;;;;7.80;4.50;;;12.60;82.60;;;;;;5084694;28;20074;-68
2023/03/19 08:12:53;;;;;;;6.28;4.10;;;12.60;82.40;;;;;;5074441;28;20524;-69
2023/03/19 08:15:18;;;;;;;6.22;3.75;;;12.70;82.40;;;;;;5085899;28;20538;-68
2023/03/19 08:17:44;;;;;;;5.45;3.50;;;12.70;82.20;;;;;;5081523;28;20028;-69
2023/03/19 08:20:12;;;;;;;5.63;3.78;;;12.80;82.10;;;;;;5085584;28;20123;-69
2023/03/19 08:22:39;;;;;;;5.43;3.90;;;12.90;81.90;;;;;;5091300;28;20102;-68
2023/03/19 08:25:05;;;;;;;5.70;4.20;;;12.90;81.80;;;;;;5087438;28;20123;-70
2023/03/19 08:27:34;;;;;;;4.57;3.28;;;12.80;81.80;;;;;;5091555;28;20020;-67
2023/03/19 08:30:00;;;;;;;6.30;4.00;;;12.90;81.70;;;;;;5085101;28;20032;-68
2023/03/19 08:32:26;;;;;;;5.20;3.35;;;13.00;81.50;;;;;;5083154;28;20070;-68
2023/03/19 08:34:52;;;;;;;6.50;4.70;;;13.00;81.40;;;;;;5079843;28;20410;-67
2023/03/19 08:37:17;;;;;;;6.28;4.50;;;13.00;81.30;;;;;;5092220;28;20032;-69
2023/03/19 08:39:43;;;;;;;7.88;4.93;;;13.10;81.10;;;;;;5083925;28;20027;-68
2023/03/19 08:42:09;;;;;;;6.28;4.45;;;13.00;81.10;;;;;;5081061;28;20028;-68
2023/03/19 08:44:34;;;;;;;6.65;4.35;;;13.10;81.00;;;;;;5083989;28;20020;-69
2023/03/19 08:47:00;;;;;;;8.57;4.93;;;13.10;81.00;;;;;;5091613;28;20070;-68
2023/03/19 08:49:25;;;;;;;7.95;4.63;;;13.10;80.90;;;;;;5083776;28;20501;-68
2023/03/19 08:51:51;;;;;;;7.13;4.97;;;13.10;80.80;;;;;;5087708;28;20378;-68
2023/03/19 08:54:17;;;;;;;6.13;4.03;;;13.10;80.70;;;;;;5088351;28;20466;-69
2023/03/19 08:56:42;;;;;;;6.03;3.95;;;13.20;80.70;;;;;;5081175;28;20020;-69
2023/03/19 08:59:08;;;;;;;7.18;5.03;;;13.30;80.50;;;;;;5084402;28;20024;-69
2023/03/19 09:01:35;;;;;;;7.25;5.40;;;13.30;80.30;;;;;;5082839;28;20030;-69
2023/03/19 09:04:01;;;;;;;8.10;5.60;;;13.40;80.30;;;;;;5088475;28;20545;-68
2023/03/19 09:06:26;;;;;;;9.55;6.57;;;13.40;80.00;;;;;;5090579;28;20035;-69
2023/03/19 09:08:52;;;;;;;6.78;4.35;;;13.50;79.80;;;;;;5085962;28;20031;-69
2023/03/19 09:11:17;;;;;;;7.55;5.38;;;13.70;79.60;;;;;;5087751;28;20437;-69
2023/03/19 09:13:43;;;;;;;7.45;4.55;;;13.90;79.20;;;;;;5089294;28;20032;-69
2023/03/19 09:16:09;;;;;;;6.90;4.68;;;13.80;78.80;;;;;;5090296;28;20099;-69
2023/03/19 09:18:34;;;;;;;6.80;4.70;;;13.80;78.80;;;;;;5085885;28;20052;-69
2023/03/19 09:21:00;;;;;;;6.25;4.28;;;13.80;78.90;;;;;;5085856;28;20064;-69
2023/03/19 09:23:26;;;;;;;6.88;4.75;;;13.80;79.20;;;;;;5088383;28;20122;-69
2023/03/19 09:25:51;;;;;;;7.88;5.00;;;13.80;79.00;;;;;;5087499;28;20037;-69
2023/03/19 09:28:17;;;;;;;7.82;5.38;;;14.00;78.80;;;;;;5088103;28;20028;-69
2023/03/19 09:30:47;;;;;;;7.95;5.10;;;14.00;78.40;;;;;;5083841;28;20077;-69
2023/03/19 09:33:14;;;;;;;7.93;5.05;;;14.00;78.40;;;;;;5085727;28;20024;-69
2023/03/19 09:35:39;;;;;;;11.77;6.80;;;14.10;78.30;;;;;;5085786;28;20048;-69
2023/03/19 09:38:05;;;;;;;12.18;8.13;;;14.10;78.10;;;;;;5083028;28;20066;-70
2023/03/19 09:40:40;;;;;;;13.18;7.25;;;13.90;77.80;;;;;;5083942;28;20027;-69
2023/03/19 09:43:32;;;;;;;10.82;6.93;;;13.80;77.90;;;;;;5085564;28;20073;-69
2023/03/19 09:46:00;;;;;;;14.15;8.85;;;13.90;78.10;;;;;;5085151;28;20035;-69
2023/03/19 09:48:45;;;;;;;13.95;8.77;;;13.90;78.10;;;;;;5089642;28;20048;-69
2023/03/19 09:51:17;;;;;;;10.45;6.60;;;13.80;78.00;;;;;;5088156;28;20032;-69
2023/03/19 09:54:00;;;;;;;7.90;5.30;;;13.90;78.10;;;;;;5086836;28;20028;-70
2023/03/19 09:56:26;;;;;;;7.10;4.85;;;14.00;78.00;;;;;;5083403;28;20111;-68
2023/03/19 09:58:52;;;;;;;9.82;5.90;;;14.10;77.90;;;;;;5088003;28;20073;-69
2023/03/19 10:01:28;;;;;;;8.30;5.63;;;14.20;77.90;;;;;;5083018;28;20028;-69
2023/03/19 10:04:31;;;;;;;7.93;5.20;;;14.20;78.20;;;;;;5086443;28;20051;-70
2023/03/19 10:07:23;;;;;;;8.85;5.80;;;14.40;77.50;;;;;;5083098;28;20028;-69
2023/03/19 10:10:02;;;;;;;8.73;5.85;;;14.40;77.40;;;;;;5086816;28;20036;-68
2023/03/19 10:13:00;;;;;;;11.93;7.32;;;14.40;77.40;;;;;;5082792;28;20099;-69
2023/03/19 10:15:31;;;;;;;13.35;8.00;;;14.40;77.20;;;;;;5084617;28;20156;-68
2023/03/19 10:18:03;;;;;;;15.73;9.48;;;14.40;77.30;;;;;;5085510;28;20092;-68
2023/03/19 10:21:01;;;;;;;14.18;8.52;;;14.50;77.10;;;;;;5077219;28;20408;-68
2023/03/19 10:23:39;;;;;;;13.73;9.05;;;14.50;76.90;;;;;;5081216;28;20051;-69
2023/03/19 10:26:10;;;;;;;14.40;10.18;;;14.50;76.70;;;;;;5083863;28;20040;-68
2023/03/19 10:28:37;;;;;;;13.55;9.13;;;14.40;76.60;;;;;;5082480;28;20035;-69
2023/03/19 10:31:34;;;;;;;12.13;8.30;;;14.40;76.80;;;;;;5084034;28;20032;-68
2023/03/19 10:34:18;;;;;;;11.55;8.10;;;14.50;76.90;;;;;;5082285;28;20143;-69
2023/03/19 10:36:44;;;;;;;11.32;8.20;;;14.60;76.80;;;;;;5080521;28;20034;-68
2023/03/19 10:39:13;;;;;;;14.18;9.43;;;14.70;76.50;;;;;;5085623;28;20040;-68
2023/03/19 10:41:56;;;;;;;10.40;6.93;;;14.70;76.30;;;;;;5088034;28;20035;-68
2023/03/19 10:44:33;;;;;;;12.00;7.28;;;14.80;76.50;;;;;;5082200;28;20063;-68
2023/03/19 10:47:12;;;;;;;14.48;9.65;;;14.90;76.30;;;;;;5085114;28;20511;-68
2023/03/19 10:49:38;;;;;;;12.98;9.55;;;14.90;76.30;;;;;;5087487;28;20024;-68
2023/03/19 10:52:04;;;;;;;14.45;10.30;;;14.90;76.20;;;;;;5082516;28;20036;-68
2023/03/19 10:54:29;;;;;;;12.80;9.52;;;14.90;76.20;;;;;;5084435;28;20020;-68
2023/03/19 10:57:00;;;;;;;12.70;8.88;;;15.00;76.20;;;;;;5083971;28;20027;-68
2023/03/19 10:59:28;;;;;;;14.52;10.57;;;15.10;76.00;;;;;;5081814;28;20024;-68
2023/03/19 11:02:00;;;;;;;15.02;9.70;;;15.10;75.80;;;;;;5076641;28;20028;-68
2023/03/19 11:04:27;;;;;;;15.73;8.85;;;15.20;75.70;;;;;;5083608;28;20031;-67
2023/03/19 11:07:02;;;;;;;21.50;12.93;;;15.20;75.50;;;;;;5082399;28;20089;-68
2023/03/19 11:09:43;;;;;;;20.70;12.98;;;15.20;75.20;;;;;;5083025;28;20402;-68
2023/03/19 11:12:32;;;;;;;15.75;9.88;;;15.10;74.80;;;;;;5079503;28;20048;-67
2023/03/19 11:15:01;;;;;;;10.90;8.10;;;15.10;75.20;;;;;;5082236;28;20415;-68
2023/03/19 11:17:35;;;;;;;11.98;8.13;;;15.20;75.80;;;;;;5083869;28;20016;-68
2023/03/19 11:20:18;;;;;;;11.90;8.27;;;15.30;75.10;;;;;;5082222;28;20039;-67
2023/03/19 11:22:44;;;;;;;11.18;8.40;;;15.30;75.10;;;;;;5084406;28;20024;-68
2023/03/19 11:25:17;;;;;;;12.40;8.02;;;15.40;74.90;;;;;;5085403;28;20074;-69
2023/03/19 11:27:56;;;;;;;13.75;8.68;;;15.40;75.00;;;;;;5083325;28;20843;-67
2023/03/19 11:30:21;;;;;;;13.80;9.35;;;15.40;74.80;;;;;;5084583;28;20028;-68
2023/03/19 11:32:59;;;;;;;11.23;7.28;;;15.40;74.10;;;;;;5084908;28;20718;-68
2023/03/19 11:35:37;;;;;;;11.23;6.65;;;15.40;74.20;;;;;;5080983;28;20020;-68
2023/03/19 11:38:05;;;;;;;9.52;5.70;;;15.40;74.00;;;;;;5084062;28;20021;-68
2023/03/19 11:40:43;;;;;;;9.35;6.50;;;15.50;74.10;;;;;;5087381;28;20070;-68
2023/03/19 11:43:29;;;;;;;13.82;8.55;;;15.60;74.10;;;;;;5087103;28;20036;-68
2023/03/19 11:46:32;;;;;;;12.45;8.90;;;15.60;73.60;;;;;;5090848;28;20111;-68
2023/03/19 11:49:28;;;;;;;16.80;11.18;;;15.60;73.60;;;;;;5090511;28;20024;-68
2023/03/19 11:52:02;;;;;;;12.95;8.35;;;15.80;73.20;;;;;;5088984;28;20122;-68
2023/03/19 11:54:30;;;;;;;11.05;7.10;;;15.80;73.20;;;;;;5088824;28;20059;-68
2023/03/19 11:57:38;;;;;;;12.38;7.43;;;15.90;73.50;;;;;;5087611;28;20520;-68
2023/03/19 12:00:17;;;;;;;10.52;7.22;;;16.00;73.40;;;;;;5086771;28;20077;-68
2023/03/19 12:02:59;;;;;;;12.95;8.27;;;16.10;73.30;;;;;;5087906;28;20032;-68
2023/03/19 12:05:29;;;;;;;13.38;7.72;;;16.20;73.20;;;;;;5088049;28;20537;-68
2023/03/19 12:08:24;;;;;;;11.27;6.70;;;16.20;73.10;;;;;;5087961;28;20063;-68
2023/03/19 12:10:59;;;;;;;11.73;7.43;;;16.30;73.20;;;;;;5087049;28;20044;-68
2023/03/19 12:13:59;;;;;;;9.38;6.00;;;16.20;73.10;;;;;;5089290;28;20519;-68
2023/03/19 12:16:38;;;;;;;12.35;7.30;;;16.10;73.40;;;;;;5085942;28;20085;-68
2023/03/19 12:19:30;;;;;;;10.35;6.80;;;16.00;73.50;;;;;;5088918;28;20517;-68
2023/03/19 12:21:56;;;;;;;12.23;7.55;;;15.90;73.80;;;;;;5086491;28;20068;-68
2023/03/19 12:25:08;;;;;;;10.00;5.97;;;15.90;74.00;;;;;;5089736;28;20390;-68
2023/03/19 12:28:08;;;;;;;12.52;6.07;;;15.80;74.10;;;;;;5088784;28;20178;-68
2023/03/19 12:30:43;;;;;;;10.75;5.82;;;15.70;74.20;;;;;;5088831;28;20032;-68
2023/03/19 12:33:15;;;;;;;7.43;4.45;;;15.80;74.20;;;;;;5089755;28;20036;-68
2023/03/19 12:35:42;;;;;;;8.57;5.28;;;15.90;74.00;;;;;;5090756;28;20031;-67
2023/03/19 12:38:30;;;;;;;9.85;5.80;;;15.90;74.10;;;;;;5086742;28;20024;-68
2023/03/19 12:41:02;;;;;;;10.52;5.60;;;16.00;73.90;;;;;;5086077;28;20482;-68
2023/03/19 12:43:36;;;;;;;7.93;5.28;;;16.00;73.90;;;;;;5088971;28;20028;-68
2023/03/19 12:46:29;;;;;;;11.50;6.20;;;16.00;73.80;;;;;;5087523;28;20093;-68
2023/03/19 12:49:01;;;;;;;10.52;5.88;;;16.10;73.70;;;;;;5089742;28;20028;-68
2023/03/19 12:51:34;;;;;;;13.60;6.60;;;16.10;73.80;;;;;;5088886;28;20027;-68
2023/03/19 12:54:17;;;;;;;11.00;6.43;;;16.20;73.70;;;;;;5089099;28;20482;-68